Time;durP1;ratioP1;P1;durP2;ratioP2;P2;SDS_P1;SDS_P2;PMS_P1;PMS_P2;Temp;Humidity;BMP_temperature;BMP_pressure;BME280_temperature;BME280_humidity;BME280_pressure;Samples;Min_cycle;Max_cycle;Signal;HPM_P1;HPM_P2
2022/10/31 00:01:30;;;;;;;6.53;4.10;;;;;;;4.14;100.00;101652.34;5032070;28;20032;-73
2022/10/31 00:03:55;;;;;;;10.98;5.20;;;;;;;4.23;100.00;101652.00;5030765;28;20026;-73
2022/10/31 00:06:22;;;;;;;7.70;4.82;;;;;;;4.29;100.00;101645.56;5031879;28;20026;-73
2022/10/31 00:08:53;;;;;;;14.05;4.47;;;;;;;4.34;100.00;101655.09;5032334;28;20042;-73
2022/10/31 00:11:18;;;;;;;12.02;5.60;;;;;;;4.32;100.00;101646.31;5031979;28;20033;-72
2022/10/31 00:13:44;;;;;;;7.20;4.68;;;;;;;4.38;100.00;101643.41;5030656;28;20398;-72
2022/10/31 00:16:17;;;;;;;8.63;5.57;;;;;;;4.41;100.00;101640.63;5031854;28;20033;-72
2022/10/31 00:18:49;;;;;;;13.68;4.80;;;;;;;4.40;100.00;101630.91;5031731;28;20033;-73
2022/10/31 00:21:14;;;;;;;12.23;5.10;;;;;;;4.47;100.00;101624.38;5030380;28;20498;-73
2022/10/31 00:23:40;;;;;;;12.63;4.13;;;;;;;4.55;100.00;101631.22;5031629;28;20093;-72
2022/10/31 00:26:06;;;;;;;8.48;4.22;;;;;;;4.47;100.00;101629.72;5033217;28;20033;-74
2022/10/31 00:28:33;;;;;;;7.60;4.10;;;;;;;4.51;100.00;101635.75;5035451;28;20390;-72
2022/10/31 00:31:00;;;;;;;8.57;4.50;;;;;;;4.55;100.00;101639.19;5034026;28;20030;-73
2022/10/31 00:33:27;;;;;;;8.95;4.05;;;;;;;4.81;100.00;101629.16;5035249;28;20057;-73
2022/10/31 00:35:52;;;;;;;7.93;4.32;;;;;;;4.88;100.00;101635.13;5033864;28;20049;-72
2022/10/31 00:38:18;;;;;;;13.98;4.70;;;;;;;4.87;100.00;101636.06;5033750;28;20060;-72
2022/10/31 00:40:43;;;;;;;9.10;4.65;;;;;;;4.84;100.00;101637.03;5035525;28;20547;-73
2022/10/31 00:43:09;;;;;;;11.18;5.30;;;;;;;4.72;100.00;101639.38;5033462;28;20049;-73
2022/10/31 00:45:34;;;;;;;7.65;4.07;;;;;;;4.62;100.00;101646.00;5035635;28;20391;-73
2022/10/31 00:48:00;;;;;;;6.75;4.05;;;;;;;4.55;100.00;101641.88;5035164;28;20109;-73
2022/10/31 00:50:26;;;;;;;11.25;4.78;;;;;;;4.58;100.00;101636.41;5033882;28;20091;-73
2022/10/31 00:52:51;;;;;;;11.55;5.25;;;;;;;4.40;100.00;101641.56;5033800;28;20056;-73
2022/10/31 00:55:17;;;;;;;9.85;4.80;;;;;;;4.24;100.00;101643.09;5034666;28;20079;-75
2022/10/31 00:57:42;;;;;;;11.55;5.28;;;;;;;4.14;100.00;101644.38;5033752;28;20026;-73
2022/10/31 01:00:10;;;;;;;12.50;5.45;;;;;;;4.35;100.00;101637.31;5033882;28;20482;-72
2022/10/31 01:02:36;;;;;;;10.80;5.05;;;;;;;4.40;100.00;101638.88;5033724;28;20482;-73
2022/10/31 01:05:02;;;;;;;15.00;5.63;;;;;;;4.28;100.00;101639.38;5034893;28;20045;-74
2022/10/31 01:07:27;;;;;;;11.20;5.15;;;;;;;4.20;100.00;101633.50;5035082;28;20479;-74
2022/10/31 01:09:53;;;;;;;14.05;5.13;;;;;;;4.19;100.00;101635.25;5035901;28;20037;-72
2022/10/31 01:12:19;;;;;;;9.80;4.85;;;;;;;4.17;100.00;101631.81;5046591;28;20064;-73
2022/10/31 01:14:45;;;;;;;8.15;4.80;;;;;;;4.13;100.00;101635.53;5050620;28;20033;-73
2022/10/31 01:17:12;;;;;;;12.35;4.78;;;;;;;4.12;100.00;101628.47;5040763;28;20501;-73
2022/10/31 01:19:37;;;;;;;12.77;6.25;;;;;;;4.11;100.00;101625.88;5033671;28;20077;-74
2022/10/31 01:22:03;;;;;;;10.80;4.55;;;;;;;4.12;100.00;101625.81;5033270;28;20494;-74
2022/10/31 01:24:28;;;;;;;11.82;5.45;;;;;;;4.05;100.00;101615.47;5033487;28;20041;-74
2022/10/31 01:26:54;;;;;;;7.78;5.22;;;;;;;4.01;100.00;101620.03;5033549;28;20371;-74
2022/10/31 01:29:20;;;;;;;11.57;4.72;;;;;;;4.06;100.00;101625.19;5034413;28;20517;-72
2022/10/31 01:31:45;;;;;;;14.13;4.63;;;;;;;4.03;100.00;101617.31;5034339;28;20032;-74
2022/10/31 01:34:15;;;;;;;12.27;5.10;;;;;;;4.09;100.00;101620.59;5033090;28;20029;-73
2022/10/31 01:36:42;;;;;;;13.00;5.57;;;;;;;4.18;100.00;101611.38;5032762;28;20079;-73
2022/10/31 01:39:11;;;;;;;10.02;5.38;;;;;;;4.15;100.00;101611.50;5032955;28;20564;-73
2022/10/31 01:41:40;;;;;;;14.63;5.03;;;;;;;4.34;100.00;101612.50;5032752;28;20034;-72
2022/10/31 01:44:14;;;;;;;9.93;4.35;;;;;;;4.43;100.00;101611.25;5032952;28;20489;-73
2022/10/31 01:46:42;;;;;;;9.20;4.57;;;;;;;4.37;100.00;101616.84;5032889;28;20478;-73
2022/10/31 01:49:20;;;;;;;10.65;3.83;;;;;;;4.29;100.00;101619.81;5033820;28;20486;-73
2022/10/31 01:52:19;;;;;;;9.70;5.38;;;;;;;4.18;100.00;101627.34;5033832;28;20028;-73
2022/10/31 01:54:58;;;;;;;11.30;5.05;;;;;;;4.06;100.00;101623.41;5020940;28;20046;-73
2022/10/31 01:57:25;;;;;;;9.15;4.97;;;;;;;4.08;100.00;101620.66;5032502;28;20029;-74
2022/10/31 01:59:57;;;;;;;10.00;5.00;;;;;;;4.08;100.00;101626.00;5032746;28;20061;-73
2022/10/31 02:02:25;;;;;;;10.35;4.70;;;;;;;4.05;100.00;101624.31;5032462;28;20478;-74
2022/10/31 02:04:52;;;;;;;10.60;6.03;;;;;;;4.13;100.00;101632.84;5033653;28;20127;-72
2022/10/31 02:07:26;;;;;;;11.63;4.82;;;;;;;4.11;100.00;101620.53;5033429;28;20037;-73
2022/10/31 02:09:53;;;;;;;15.82;5.90;;;;;;;4.12;100.00;101632.94;5033706;28;20108;-74
2022/10/31 02:12:20;;;;;;;11.68;4.90;;;;;;;4.14;100.00;101628.41;5033519;28;20099;-74
2022/10/31 02:14:46;;;;;;;16.10;4.80;;;;;;;4.15;100.00;101622.16;5034035;28;20029;-74
2022/10/31 02:17:11;;;;;;;11.63;5.07;;;;;;;4.12;100.00;101628.47;5033377;28;20051;-74
2022/10/31 02:19:49;;;;;;;11.60;5.20;;;;;;;4.08;100.00;101631.31;5032222;28;20053;-74
2022/10/31 02:22:27;;;;;;;19.80;5.50;;;;;;;4.00;100.00;101633.41;5033410;28;20358;-73
2022/10/31 02:25:38;;;;;;;11.65;5.63;;;;;;;4.00;100.00;101630.72;5033360;28;20025;-73
2022/10/31 02:28:31;;;;;;;9.88;6.00;;;;;;;4.10;100.00;101618.81;5030480;28;20038;-73
2022/10/31 02:31:35;;;;;;;14.50;5.53;;;;;;;4.09;100.00;101622.41;5031532;28;20033;-74
2022/10/31 02:34:10;;;;;;;8.93;4.85;;;;;;;3.99;100.00;101619.22;5033225;28;20483;-74
2022/10/31 02:36:39;;;;;;;9.82;5.57;;;;;;;4.01;100.00;101619.16;5032019;28;20057;-73
2022/10/31 02:39:18;;;;;;;11.00;4.72;;;;;;;4.12;100.00;101627.59;5032766;28;20544;-73
2022/10/31 02:41:52;;;;;;;18.85;6.05;;;;;;;4.17;100.00;101625.63;5033173;28;20021;-74
2022/10/31 02:44:32;;;;;;;14.05;5.43;;;;;;;4.21;100.00;101627.25;5032842;28;20029;-74
2022/10/31 02:47:19;;;;;;;11.20;4.95;;;;;;;4.26;100.00;101629.72;5031470;28;20033;-75
2022/10/31 02:49:59;;;;;;;10.50;4.45;;;;;;;4.21;100.00;101627.25;5032902;28;20033;-74
2022/10/31 02:52:30;;;;;;;12.55;5.25;;;;;;;4.23;100.00;101628.06;5033028;28;20022;-74
2022/10/31 02:54:56;;;;;;;11.23;5.88;;;;;;;4.21;100.00;101629.91;5032474;28;20095;-75
2022/10/31 02:57:42;;;;;;;15.45;5.03;;;;;;;4.17;100.00;101636.25;5032691;28;20426;-73
2022/10/31 03:00:09;;;;;;;15.02;6.03;;;;;;;4.17;100.00;101636.25;5032659;28;20040;-73
2022/10/31 03:03:08;;;;;;;10.27;5.20;;;;;;;4.29;100.00;101635.78;5032507;28;20033;-73
2022/10/31 03:05:53;;;;;;;12.70;5.63;;;;;;;4.31;100.00;101638.38;5031362;28;20034;-75
2022/10/31 03:08:50;;;;;;;14.80;5.03;;;;;;;4.41;100.00;101629.97;5031298;28;20055;-74
2022/10/31 03:11:20;;;;;;;12.30;4.93;;;;;;;4.50;100.00;101628.72;5022496;28;20045;-73
2022/10/31 03:13:57;;;;;;;10.18;4.93;;;;;;;4.46;100.00;101627.97;5031194;28;20059;-74
2022/10/31 03:16:28;;;;;;;17.77;6.20;;;;;;;4.57;100.00;101632.00;5031213;28;20029;-74
2022/10/31 03:19:08;;;;;;;10.68;5.05;;;;;;;4.70;100.00;101635.88;5032760;28;20504;-75
2022/10/31 03:21:44;;;;;;;12.00;5.22;;;;;;;4.75;100.00;101623.25;5032524;28;20026;-73
2022/10/31 03:24:11;;;;;;;15.60;5.00;;;;;;;4.80;100.00;101637.22;5031231;28;20033;-73
2022/10/31 03:26:42;;;;;;;10.63;4.60;;;;;;;4.92;100.00;101625.19;5030867;28;20068;-73
2022/10/31 03:29:13;;;;;;;8.13;3.97;;;;;;;5.26;100.00;101624.59;5030688;28;20039;-72
2022/10/31 03:31:51;;;;;;;13.80;4.60;;;;;;;5.36;100.00;101626.75;5031131;28;20037;-72
2022/10/31 03:34:19;;;;;;;10.50;3.92;;;;;;;5.36;100.00;101621.44;5032223;28;20100;-73
2022/10/31 03:36:50;;;;;;;12.43;3.95;;;;;;;5.51;100.00;101629.69;5030890;28;20026;-73
2022/10/31 03:39:19;;;;;;;12.40;4.38;;;;;;;5.54;100.00;101622.41;5031993;28;20056;-74
2022/10/31 03:42:07;;;;;;;11.05;3.70;;;;;;;5.54;100.00;101624.19;5031904;28;20043;-74
2022/10/31 03:44:35;;;;;;;11.68;4.20;;;;;;;5.57;100.00;101630.28;5030833;28;20037;-74
2022/10/31 03:47:01;;;;;;;7.93;3.22;;;;;;;5.57;100.00;101629.41;5032046;28;20030;-73
2022/10/31 03:49:28;;;;;;;11.50;3.95;;;;;;;5.52;100.00;101626.94;5032217;28;20025;-74
2022/10/31 03:52:15;;;;;;;10.90;4.20;;;;;;;5.58;100.00;101626.69;5030893;28;20457;-73
2022/10/31 03:54:42;;;;;;;8.70;3.53;;;;;;;5.62;100.00;101622.06;5030936;28;20057;-73
2022/10/31 03:57:33;;;;;;;14.48;3.53;;;;;;;5.81;100.00;101624.75;5030673;28;20030;-74
2022/10/31 04:00:02;;;;;;;12.25;3.70;;;;;;;6.11;100.00;101619.81;5031544;28;20128;-74
2022/10/31 04:02:32;;;;;;;12.60;3.10;;;;;;;6.33;100.00;101610.66;5034576;28;20034;-73
2022/10/31 04:04:59;;;;;;;12.73;3.13;;;;;;;6.53;100.00;101607.00;5034589;28;20049;-74
2022/10/31 04:07:31;;;;;;;9.27;3.03;;;;;;;6.42;100.00;101608.50;5035868;28;20030;-73
2022/10/31 04:10:00;;;;;;;9.65;2.72;;;;;;;6.68;100.00;101610.72;5036025;28;20026;-74
2022/10/31 04:12:28;;;;;;;10.43;3.70;;;;;;;6.42;100.00;101608.50;5036077;28;20037;-74
2022/10/31 04:14:55;;;;;;;14.57;3.28;;;;;;;6.52;100.00;101609.75;5036060;28;20029;-74
2022/10/31 04:17:25;;;;;;;9.43;3.33;;;;;;;6.53;100.00;101600.81;5034454;28;20492;-74
2022/10/31 04:19:51;;;;;;;7.93;3.60;;;;;;;6.46;100.00;101594.03;5034565;28;20037;-73
2022/10/31 04:22:16;;;;;;;13.45;4.07;;;;;;;6.18;100.00;101598.06;5035801;28;20025;-74
2022/10/31 04:24:42;;;;;;;13.27;4.45;;;;;;;6.21;100.00;101595.22;5035537;28;20074;-74
2022/10/31 04:27:08;;;;;;;12.77;4.82;;;;;;;6.21;100.00;101595.22;5035398;28;20025;-74
2022/10/31 04:29:33;;;;;;;10.95;3.15;;;;;;;6.60;100.00;101586.22;5034277;28;20064;-73
2022/10/31 04:31:59;;;;;;;13.70;4.00;;;;;;;6.76;100.00;101592.50;5035541;28;20122;-75
2022/10/31 04:34:25;;;;;;;14.65;4.25;;;;;;;6.93;100.00;101587.16;5035249;28;20052;-75
2022/10/31 04:36:50;;;;;;;12.38;4.30;;;;;;;6.73;100.00;101583.78;5035367;28;20037;-75
2022/10/31 04:39:16;;;;;;;12.75;4.13;;;;;;;6.96;100.00;101577.25;5033705;28;20071;-74
2022/10/31 04:41:41;;;;;;;20.15;4.70;;;;;;;7.07;100.00;101583.78;5034021;28;20052;-75
2022/10/31 04:44:07;;;;;;;16.33;4.55;;;;;;;7.17;100.00;101587.66;5033834;28;20029;-75
2022/10/31 04:46:32;;;;;;;20.55;5.10;;;;;;;7.19;100.00;101579.56;5033951;28;20041;-75
2022/10/31 04:48:59;;;;;;;17.80;4.50;;;;;;;7.23;100.00;101583.81;5035224;28;20034;-74
2022/10/31 04:51:24;;;;;;;19.90;4.43;;;;;;;7.25;100.00;101573.91;5035070;28;20112;-74
2022/10/31 04:53:50;;;;;;;15.35;5.20;;;;;;;7.32;100.00;101575.28;5034780;28;20101;-73
2022/10/31 04:56:16;;;;;;;24.05;5.38;;;;;;;7.36;100.00;101576.84;5032554;28;20072;-75
2022/10/31 04:58:41;;;;;;;23.77;7.00;;;;;;;7.38;100.00;101580.31;5033914;28;20100;-75
2022/10/31 05:01:07;;;;;;;32.28;7.38;;;;;;;7.39;100.00;101582.06;5033790;28;20056;-75
2022/10/31 05:03:32;;;;;;;31.08;7.47;;;;;;;7.41;100.00;101577.50;5032208;28;20037;-75
2022/10/31 05:05:58;;;;;;;40.42;8.52;;;;;;;7.45;100.00;101587.06;5032123;28;20035;-74
2022/10/31 05:08:23;;;;;;;42.55;8.38;;;;;;;7.41;100.00;101580.16;5032347;28;20128;-76
2022/10/31 05:10:49;;;;;;;32.58;7.93;;;;;;;7.47;100.00;101579.81;5031681;28;20037;-74
2022/10/31 05:13:15;;;;;;;51.70;8.25;;;;;;;7.50;100.00;101568.94;5031509;28;20021;-74
2022/10/31 05:15:41;;;;;;;54.40;10.60;;;;;;;7.51;100.00;101576.03;5033310;28;20036;-75
2022/10/31 05:18:07;;;;;;;64.93;9.77;;;;;;;7.49;100.00;101572.56;5032328;28;20029;-75
2022/10/31 05:20:33;;;;;;;47.58;8.70;;;;;;;7.55;100.00;101566.88;5033443;28;20029;-75
2022/10/31 05:22:59;;;;;;;163.70;13.98;;;;;;;7.57;100.00;101574.84;5032527;28;20034;-74
2022/10/31 05:25:27;;;;;;;98.35;14.00;;;;;;;7.58;100.00;101565.00;5032804;28;20521;-75
2022/10/31 05:27:54;;;;;;;57.15;9.43;;;;;;;7.59;100.00;101572.94;5031443;28;20036;-74
2022/10/31 05:30:23;;;;;;;132.32;12.25;;;;;;;7.58;100.00;101565.00;5031654;28;20033;-74
2022/10/31 05:32:50;;;;;;;147.10;12.07;;;;;;;7.59;100.00;101564.06;5032902;28;20033;-74
2022/10/31 05:35:20;;;;;;;244.90;16.02;;;;;;;7.57;100.00;101557.94;5032650;28;20493;-74
2022/10/31 05:37:46;;;;;;;102.95;11.85;;;;;;;7.60;100.00;101569.31;5032876;28;20029;-73
2022/10/31 05:40:14;;;;;;;225.50;16.15;;;;;;;7.62;100.00;101566.56;5033104;28;20516;-74
2022/10/31 05:42:41;;;;;;;136.32;12.15;;;;;;;7.63;100.00;101562.94;5032657;28;20112;-74
2022/10/31 05:45:15;;;;;;;68.03;7.90;;;;;;;7.63;100.00;101552.22;5032378;28;20478;-74
2022/10/31 05:47:40;;;;;;;67.35;7.97;;;;;;;7.65;100.00;101561.03;5032653;28;20100;-73
2022/10/31 05:50:07;;;;;;;102.03;10.13;;;;;;;7.66;100.00;101557.41;5032543;28;20113;-74
2022/10/31 05:52:33;;;;;;;98.93;9.20;;;;;;;7.65;100.00;101555.69;5032632;28;20075;-73
2022/10/31 05:54:58;;;;;;;97.00;8.90;;;;;;;7.69;100.00;101562.59;4973868;28;1684039;-73
2022/10/31 05:57:24;;;;;;;41.35;7.43;;;;;;;7.69;100.00;101563.44;5032269;28;20048;-73
2022/10/31 05:59:52;;;;;;;31.40;5.95;;;;;;;7.71;100.00;101566.91;5033782;28;20045;-75
2022/10/31 06:02:19;;;;;;;46.97;8.07;;;;;;;7.71;100.00;101566.91;5033374;28;20119;-72
2022/10/31 06:04:45;;;;;;;65.60;7.95;;;;;;;7.74;100.00;101565.88;5033346;28;20037;-75
2022/10/31 06:07:10;;;;;;;51.22;6.80;;;;;;;7.74;100.00;101566.75;5031964;28;20033;-76
2022/10/31 06:09:36;;;;;;;128.20;12.43;;;;;;;7.80;100.00;101565.53;5031563;28;20087;-74
2022/10/31 06:12:01;;;;;;;70.20;8.40;;;;;;;7.79;100.00;101566.50;5031879;28;20030;-77
2022/10/31 06:14:27;;;;;;;27.38;7.35;;;;;;;7.81;100.00;101564.59;5032863;28;20033;-75
2022/10/31 06:16:55;;;;;;;31.83;7.30;;;;;;;7.86;100.00;101559.81;5032089;28;20037;-75
2022/10/31 06:19:20;;;;;;;29.23;5.13;;;;;;;7.88;100.00;101557.94;5031425;28;20097;-75
2022/10/31 06:21:46;;;;;;;21.85;6.63;;;;;;;7.92;100.00;101564.84;5032991;28;20096;-73
2022/10/31 06:24:12;;;;;;;37.40;7.70;;;;;;;7.95;100.00;101572.72;5031919;28;20046;-74
2022/10/31 06:26:37;;;;;;;28.75;7.25;;;;;;;7.95;100.00;101570.03;5031253;28;20080;-75
2022/10/31 06:29:03;;;;;;;64.32;10.55;;;;;;;7.96;100.00;101574.44;5032560;28;20026;-73
2022/10/31 06:31:29;;;;;;;56.63;8.73;;;;;;;8.04;100.00;101577.53;5032278;28;20071;-74
2022/10/31 06:33:55;;;;;;;69.88;8.95;;;;;;;8.08;100.00;101576.44;5031423;28;20029;-74
2022/10/31 06:36:20;;;;;;;41.03;7.43;;;;;;;8.12;100.00;101572.63;5032344;28;20057;-72
2022/10/31 06:38:46;;;;;;;59.03;8.32;;;;;;;8.14;100.00;101565.34;5032636;28;20501;-74
2022/10/31 06:41:11;;;;;;;47.53;8.63;;;;;;;8.15;100.00;101572.44;5032275;28;20033;-76
2022/10/31 06:43:37;;;;;;;33.22;7.68;;;;;;;8.17;100.00;101574.16;5030819;28;20033;-74
2022/10/31 06:46:04;;;;;;;46.15;10.10;;;;;;;8.21;100.00;101565.84;5031914;28;20041;-74
2022/10/31 06:48:30;;;;;;;54.42;8.05;;;;;;;8.19;100.00;101573.13;5030479;28;20064;-73
2022/10/31 06:51:00;;;;;;;55.65;9.75;;;;;;;8.26;100.00;101563.81;5031845;28;20072;-74
2022/10/31 06:53:26;;;;;;;45.08;8.75;;;;;;;8.29;100.00;101578.84;5030746;28;20025;-73
2022/10/31 06:55:52;;;;;;;34.08;8.57;;;;;;;8.30;100.00;101572.53;5031875;28;20045;-74
2022/10/31 06:58:18;;;;;;;50.28;9.32;;;;;;;8.32;100.00;101574.16;5031858;28;20060;-75
2022/10/31 07:00:43;;;;;;;41.80;8.52;;;;;;;8.34;100.00;101574.09;5030428;28;20064;-75
2022/10/31 07:03:11;;;;;;;37.22;8.18;;;;;;;8.40;100.00;101576.44;5029658;28;20488;-74
2022/10/31 07:05:38;;;;;;;59.05;9.27;;;;;;;8.40;100.00;101587.16;5031983;28;20458;-74
2022/10/31 07:08:08;;;;;;;57.92;9.15;;;;;;;8.43;100.00;101578.94;5031213;28;20044;-73
2022/10/31 07:10:35;;;;;;;81.25;10.18;;;;;;;8.46;100.00;101580.56;5029954;28;20025;-74
2022/10/31 07:13:04;;;;;;;98.72;11.23;;;;;;;8.46;100.00;101589.47;5030097;28;20029;-76
2022/10/31 07:15:34;;;;;;;38.22;8.90;;;;;;;8.48;100.00;101592.91;5029832;28;20064;-74
2022/10/31 07:18:04;;;;;;;65.25;9.95;;;;;;;8.53;100.00;101582.78;5031539;28;20030;-74
2022/10/31 07:20:31;;;;;;;61.72;10.40;;;;;;;8.56;100.00;101593.31;5029284;28;20057;-74
2022/10/31 07:22:57;;;;;;;53.83;11.35;;;;;;;8.58;100.00;101580.72;5030822;28;20049;-72
2022/10/31 07:25:24;;;;;;;47.50;9.93;;;;;;;8.59;100.00;101577.09;5031369;28;20028;-74
2022/10/31 07:27:50;;;;;;;39.17;9.25;;;;;;;8.64;100.00;101591.06;5031210;28;20124;-74
2022/10/31 07:30:18;;;;;;;44.88;9.68;;;;;;;8.65;100.00;101589.25;5029375;28;20040;-73
2022/10/31 07:32:48;;;;;;;52.85;8.88;;;;;;;8.69;100.00;101598.84;5030282;28;20489;-73
2022/10/31 07:35:25;;;;;;;47.03;9.55;;;;;;;8.72;100.00;101588.78;5029568;28;20095;-74
2022/10/31 07:37:51;;;;;;;38.75;9.48;;;;;;;8.77;100.00;101580.50;5029761;28;20116;-75
2022/10/31 07:40:18;;;;;;;41.33;8.75;;;;;;;8.81;100.00;101583.84;5030058;28;20144;-74
2022/10/31 07:42:49;;;;;;;32.75;9.52;;;;;;;8.82;100.00;101577.53;5031509;28;20041;-73
2022/10/31 07:45:18;;;;;;;38.17;10.13;;;;;;;8.85;100.00;101580.88;5029948;28;20033;-75
2022/10/31 07:47:46;;;;;;;27.20;8.80;;;;;;;8.86;100.00;101584.44;5029580;28;20340;-75
2022/10/31 07:50:15;;;;;;;32.28;9.93;;;;;;;8.83;100.00;101582.78;5029346;28;20044;-74
2022/10/31 07:52:41;;;;;;;31.67;8.52;;;;;;;8.91;100.00;101577.00;5029769;28;20037;-74
2022/10/31 07:55:07;;;;;;;31.27;9.60;;;;;;;8.97;100.00;101580.16;5031184;28;20427;-74
2022/10/31 07:57:33;;;;;;;28.30;11.20;;;;;;;8.98;100.00;101583.69;5029668;28;20167;-75
2022/10/31 07:59:58;;;;;;;26.55;7.70;;;;;;;9.03;100.00;101581.59;5030067;28;20518;-75
2022/10/31 08:02:25;;;;;;;25.42;8.70;;;;;;;9.05;100.00;101571.63;5029850;28;20033;-72
2022/10/31 08:04:51;;;;;;;22.42;8.77;;;;;;;9.09;100.00;101565.13;5029838;28;20029;-75
2022/10/31 08:07:17;;;;;;;32.40;9.70;;;;;;;9.14;100.00;101578.25;5029393;28;20037;-76
2022/10/31 08:09:42;;;;;;;35.22;10.00;;;;;;;9.17;100.00;101584.31;5030994;28;20036;-73
2022/10/31 08:12:08;;;;;;;28.60;8.52;;;;;;;9.16;100.00;101585.25;5029738;28;20497;-74
2022/10/31 08:14:34;;;;;;;35.10;9.88;;;;;;;9.14;100.00;101589.88;5029822;28;20124;-74
2022/10/31 08:16:59;;;;;;;28.85;9.85;;;;;;;9.22;100.00;101592.91;5031527;28;20044;-75
2022/10/31 08:19:25;;;;;;;32.67;10.45;;;;;;;9.27;100.00;101590.84;5031651;28;20045;-77
2022/10/31 08:21:51;;;;;;;31.25;9.45;;;;;;;9.37;100.00;101585.75;5030829;28;20029;-75
2022/10/31 08:24:17;;;;;;;35.22;10.75;;;;;;;9.31;100.00;101592.38;5030955;28;20033;-73
2022/10/31 08:26:43;;;;;;;36.42;11.15;;;;;;;9.33;100.00;101585.09;5031285;28;20171;-75
2022/10/31 08:29:09;;;;;;;40.58;11.40;;;;;;;9.41;100.00;101583.75;5029165;28;20386;-74
2022/10/31 08:31:34;;;;;;;39.83;10.95;;;;;;;9.44;100.00;101584.44;5030112;28;20045;-75
2022/10/31 08:34:00;;;;;;;37.90;10.93;;;;;;;9.45;100.00;101577.25;5031178;28;20081;-75
2022/10/31 08:36:27;;;;;;;32.47;11.38;;;;;;;9.49;100.00;101586.81;5029818;28;20037;-75
2022/10/31 08:38:53;;;;;;;37.58;11.07;;;;;;;9.41;100.00;101587.31;5030031;28;20044;-73
2022/10/31 08:41:19;;;;;;;40.17;11.40;;;;;;;9.43;100.00;101589.91;5031549;28;20040;-75
2022/10/31 08:43:45;;;;;;;35.20;11.40;;;;;;;9.42;100.00;101589.03;5030962;28;20037;-74
2022/10/31 08:46:11;;;;;;;38.03;11.68;;;;;;;9.48;100.00;101585.97;5031366;28;20095;-75
2022/10/31 08:48:36;;;;;;;37.20;12.05;;;;;;;9.58;100.00;101583.56;5034915;28;20057;-74
2022/10/31 08:51:02;;;;;;;41.35;11.70;;;;;;;9.66;100.00;101586.63;5034794;28;20029;-74
2022/10/31 08:53:28;;;;;;;30.17;11.63;;;;;;;9.65;100.00;101579.53;5033592;28;20474;-75
2022/10/31 08:55:56;;;;;;;32.13;11.10;;;;;;;9.72;100.00;101591.59;5034901;28;20539;-73
2022/10/31 08:58:23;;;;;;;27.90;10.75;;;;;;;9.77;100.00;101594.00;5032970;28;20124;-74
2022/10/31 09:00:52;;;;;;;26.80;11.10;;;;;;;9.81;100.00;101588.34;5032748;28;20026;-74
2022/10/31 09:03:26;;;;;;;23.67;10.10;;;;;;;9.77;100.00;101576.06;5037546;28;20049;-74
2022/10/31 09:05:55;;;;;;;21.20;8.37;;;;;;;9.91;100.00;101576.06;5041411;28;20044;-74
2022/10/31 09:08:21;;;;;;;19.58;9.27;;;;;;;9.95;100.00;101580.25;5037299;28;20029;-74
2022/10/31 09:10:47;;;;;;;24.05;11.38;;;;;;;9.98;100.00;101586.41;5034250;28;20055;-72
2022/10/31 09:13:15;;;;;;;20.77;9.32;;;;;;;10.00;100.00;101589.84;5034102;28;20472;-74
2022/10/31 09:15:43;;;;;;;21.63;9.02;;;;;;;10.00;100.00;101581.78;5034138;28;20044;-74
2022/10/31 09:18:12;;;;;;;17.77;8.77;;;;;;;10.01;100.00;101587.06;5034146;28;20083;-74
2022/10/31 09:20:39;;;;;;;23.05;9.23;;;;;;;9.95;100.00;101599.06;5032863;28;20037;-73
2022/10/31 09:23:17;;;;;;;20.20;8.93;;;;;;;9.86;100.00;101596.94;5032629;28;20110;-74
2022/10/31 09:25:44;;;;;;;19.30;9.05;;;;;;;9.84;100.00;101601.56;5032239;28;20032;-73
2022/10/31 09:28:12;;;;;;;19.38;9.52;;;;;;;9.99;100.00;101598.88;5032670;28;20022;-74
2022/10/31 09:30:38;;;;;;;19.55;10.02;;;;;;;10.02;100.00;101610.28;5034173;28;20033;-73
2022/10/31 09:33:06;;;;;;;20.15;9.75;;;;;;;10.15;100.00;101604.97;5032359;28;20402;-74
2022/10/31 09:35:32;;;;;;;18.13;8.68;;;;;;;10.18;100.00;101604.78;5034026;28;20376;-73
2022/10/31 09:37:59;;;;;;;17.40;9.60;;;;;;;10.21;100.00;101593.84;5033267;28;20037;-73
2022/10/31 09:40:37;;;;;;;22.50;14.50;;;;;;;10.27;100.00;101592.59;5033559;28;20387;-72
2022/10/31 09:43:03;;;;;;;14.02;7.80;;;;;;;10.35;100.00;101598.31;5031937;28;20045;-72
2022/10/31 09:45:46;;;;;;;13.68;8.85;;;;;;;10.33;100.00;101586.81;5033304;28;20033;-74
2022/10/31 09:48:38;;;;;;;17.13;8.77;;;;;;;10.41;100.00;101593.41;5031892;28;20033;-73
2022/10/31 09:51:08;;;;;;;23.55;9.27;;;;;;;10.55;100.00;101587.09;5033011;28;20164;-74
2022/10/31 09:53:37;;;;;;;19.23;10.13;;;;;;;10.58;100.00;101586.88;5032136;28;20037;-73
2022/10/31 09:56:09;;;;;;;17.85;8.80;;;;;;;10.59;100.00;101587.78;5033026;28;20415;-72
2022/10/31 09:58:43;;;;;;;17.80;8.77;;;;;;;10.63;100.00;101589.28;5031948;28;20075;-73
2022/10/31 10:01:27;;;;;;;19.50;9.43;;;;;;;10.74;100.00;101592.09;5032375;28;20041;-74
2022/10/31 10:03:59;;;;;;;20.08;12.75;;;;;;;10.80;100.00;101592.56;5031629;28;20037;-73
2022/10/31 10:06:29;;;;;;;14.23;8.02;;;;;;;10.67;100.00;101593.50;5032949;28;20069;-73
2022/10/31 10:08:56;;;;;;;15.30;9.63;;;;;;;10.73;100.00;101593.06;5033448;28;20029;-74
2022/10/31 10:11:30;;;;;;;13.82;9.45;;;;;;;10.66;100.00;101583.69;5032449;28;20032;-74
2022/10/31 10:14:06;;;;;;;16.60;12.65;;;;;;;10.76;100.00;101584.81;5031448;28;20155;-74
2022/10/31 10:16:49;;;;;;;19.95;13.82;;;;;;;10.82;100.00;101581.69;5032701;28;20052;-74
2022/10/31 10:19:38;;;;;;;15.85;8.70;;;;;;;10.90;100.00;101592.78;5032195;28;20036;-73
2022/10/31 10:22:19;;;;;;;13.90;9.45;;;;;;;10.82;100.00;101584.38;5031710;28;20033;-74
2022/10/31 10:25:13;;;;;;;18.85;9.15;;;;;;;10.86;100.00;101588.59;5034016;28;20061;-74
2022/10/31 10:28:14;;;;;;;18.52;9.80;;;;;;;10.75;100.00;101583.06;5032128;28;20033;-74
2022/10/31 10:30:44;;;;;;;15.57;9.15;;;;;;;10.73;100.00;101585.00;5033447;28;20049;-74
2022/10/31 10:33:43;;;;;;;20.33;9.20;;;;;;;10.73;100.00;101585.00;5032264;28;20087;-75
2022/10/31 10:36:14;;;;;;;17.27;10.50;;;;;;;10.73;100.00;101590.38;5029540;28;20037;-76
2022/10/31 10:38:51;;;;;;;22.80;9.75;;;;;;;10.61;100.00;101591.22;5033968;28;20025;-76
2022/10/31 10:41:23;;;;;;;17.92;10.18;;;;;;;10.61;100.00;101593.91;5045905;28;20032;-75
2022/10/31 10:43:51;;;;;;;22.00;12.20;;;;;;;10.57;100.00;101578.94;5052093;28;20048;-76
2022/10/31 10:49:50;;;;;;;16.25;9.63;;;;;;;10.65;100.00;101592.72;5032734;28;20469;-75
2022/10/31 10:52:22;;;;;;;19.52;10.48;;;;;;;10.65;100.00;101581.97;5031275;28;20061;-76
2022/10/31 10:55:12;;;;;;;14.85;8.93;;;;;;;10.66;100.00;101586.38;5030030;28;20046;-75
2022/10/31 10:58:01;;;;;;;15.27;8.88;;;;;;;10.76;100.00;101591.06;5031847;28;20032;-75
2022/10/31 11:00:47;;;;;;;15.07;9.05;;;;;;;10.82;100.00;101589.78;5032226;28;20095;-74
2022/10/31 11:03:14;;;;;;;14.07;8.75;;;;;;;10.89;100.00;101585.69;5030279;28;20375;-75
2022/10/31 11:05:53;;;;;;;15.02;9.20;;;;;;;10.92;100.00;101590.88;5030977;28;20446;-75
2022/10/31 11:08:30;;;;;;;13.57;8.68;;;;;;;10.93;100.00;101586.34;5031450;28;20100;-74
2022/10/31 11:11:06;;;;;;;12.02;8.32;;;;;;;11.03;100.00;101588.28;5030196;28;20085;-73
2022/10/31 11:13:34;;;;;;;15.23;9.25;;;;;;;11.06;100.00;101593.47;5031684;28;20029;-76
2022/10/31 11:16:08;;;;;;;13.35;7.88;;;;;;;11.08;100.00;101591.50;5030321;28;20355;-75
2022/10/31 11:18:41;;;;;;;13.50;8.90;;;;;;;11.18;100.00;101596.28;5030074;28;20041;-77
2022/10/31 11:21:20;;;;;;;14.30;8.57;;;;;;;11.15;100.00;101598.22;5031144;28;20040;-75
2022/10/31 11:23:47;;;;;;;12.73;8.20;;;;;;;11.26;100.00;101602.00;5029803;28;20450;-76
2022/10/31 11:26:20;;;;;;;12.77;9.43;;;;;;;11.23;100.00;101597.66;5030980;28;20104;-75
2022/10/31 11:28:57;;;;;;;12.73;7.88;;;;;;;11.23;100.00;101605.75;5029865;28;20029;-75
2022/10/31 11:31:24;;;;;;;14.55;8.23;;;;;;;11.25;100.00;101601.13;5031403;28;20041;-74